Sunderland, Vermont
Current Conditions -  °F | °C
As of 3:47 AM on Thursday 23 Oct 2014 (Local Time) from KDDH Reporting Station
Moderate Rain Moderate Rain  
Wind Chill: 46°   Ceiling: 1200
Heat Index: 46°   Visibility: 2.5mi
Dew Point: 43°   Wind: 3mph
Humidity: 89%   Direction: 310°NW
Pressure: 29.87"   Gusts: NA
Location:  43.0661°N, 73.1407°W
Report Text: KDDH 230747Z AUTO 31003KT 2 1/2SM RA BR BKN012 OVC025 08/06 A2987 RMK AO2 P0017 T00780061
Loading
Personal Weather Stations






























Interactive Weather Map
Tropical Storm Tracking
New forecast layout! Learn more

10-Day Weather Forecast

Advertisements
Track Severe Weather on mobile